createdAt,value
2022-11-24T00:00:30.358Z,996.31
2022-11-24T00:01:02.526Z,996.14
2022-11-24T00:01:33.855Z,996.14
2022-11-24T00:02:06.839Z,996.61
2022-11-24T00:02:35.195Z,996.14
2022-11-24T00:02:54.121Z,996.14
2022-11-24T00:03:26.281Z,996.14
2022-11-24T00:03:57.978Z,996.41
2022-11-24T00:04:30.008Z,996.41
2022-11-24T00:05:02.216Z,996.51
2022-11-24T00:05:33.870Z,996.51
2022-11-24T00:06:05.967Z,996.41
2022-11-24T00:06:35.035Z,996.31
2022-11-24T00:06:53.970Z,996.31
2022-11-24T00:07:26.762Z,996.31
2022-11-24T00:07:57.920Z,996.31
2022-11-24T00:08:30.966Z,996.31
2022-11-24T00:09:02.313Z,996.24
2022-11-24T00:09:34.832Z,996.24
2022-11-24T00:10:06.230Z,996.31
2022-11-24T00:10:35.047Z,996.51
2022-11-24T00:10:54.062Z,996.51
2022-11-24T00:11:25.748Z,996.51
2022-11-24T00:11:58.709Z,996.41
2022-11-24T00:12:29.993Z,996.41
2022-11-24T00:13:03.145Z,996.31
2022-11-24T00:13:33.887Z,996.31
2022-11-24T00:14:06.867Z,996.31
2022-11-24T00:14:35.359Z,996.31
2022-11-24T00:14:53.959Z,996.31
2022-11-24T00:15:26.175Z,996.31
2022-11-24T00:15:57.833Z,996.31
2022-11-24T00:16:30.102Z,996.31
2022-11-24T00:17:02.126Z,996.31
2022-11-24T00:17:33.853Z,996.31
2022-11-24T00:18:05.920Z,996.31
2022-11-24T00:18:35.665Z,996.41
2022-11-24T00:18:53.983Z,996.41
2022-11-24T00:19:26.962Z,996.41
2022-11-24T00:19:57.836Z,996.51
2022-11-24T00:20:31.006Z,996.51
2022-11-24T00:21:01.922Z,996.41
2022-11-24T00:21:34.991Z,996.41
2022-11-24T00:22:06.119Z,996.51
2022-11-24T00:22:34.826Z,996.31
2022-11-24T00:22:53.985Z,996.31
2022-11-24T00:23:26.073Z,996.31
2022-11-24T00:23:58.668Z,996.24
2022-11-24T00:24:29.828Z,996.24
2022-11-24T00:25:02.804Z,996.14
2022-11-24T00:25:33.831Z,996.14
2022-11-24T00:26:06.720Z,996.51
2022-11-24T00:26:35.026Z,996.41
2022-11-24T00:26:54.000Z,996.41
2022-11-24T00:27:25.817Z,996.41
2022-11-24T00:27:57.816Z,996.14
2022-11-24T00:28:29.977Z,996.14
2022-11-24T00:29:01.997Z,996.41
2022-11-24T00:29:33.904Z,996.41
2022-11-24T00:30:06.020Z,996.51
2022-11-24T00:30:35.864Z,996.41
2022-11-24T00:30:54.231Z,996.41
2022-11-24T00:31:26.660Z,996.41
2022-11-24T00:31:57.838Z,996.51
2022-11-24T00:32:30.880Z,996.51
2022-11-24T00:33:02.016Z,996.61
2022-11-24T00:33:35.099Z,996.61
2022-11-24T00:34:05.966Z,996.24
2022-11-24T00:34:35.209Z,996.51
2022-11-24T00:34:53.977Z,996.51
2022-11-24T00:35:26.097Z,996.51
2022-11-24T00:35:58.737Z,996.51
2022-11-24T00:36:29.928Z,996.51
2022-11-24T00:37:03.047Z,996.51
2022-11-24T00:37:34.339Z,996.51
2022-11-24T00:38:06.861Z,996.41
2022-11-24T00:38:35.071Z,996.51
2022-11-24T00:38:53.966Z,996.51
2022-11-24T00:39:26.042Z,996.51
2022-11-24T00:40:14.889Z,996.41
2022-11-24T00:40:35.308Z,996.41
2022-11-24T00:41:01.888Z,996.41
2022-11-24T00:41:34.004Z,996.41
2022-11-24T00:42:06.025Z,996.31
2022-11-24T00:42:35.121Z,996.31
2022-11-24T00:42:54.246Z,996.31
2022-11-24T00:43:26.779Z,996.31
2022-11-24T00:44:01.245Z,996.51
2022-11-24T00:44:31.106Z,996.51
2022-11-24T00:45:13.253Z,996.41
2022-11-24T00:45:35.119Z,996.41
2022-11-24T00:46:06.026Z,996.31
2022-11-24T00:46:35.244Z,996.41
2022-11-24T00:46:54.011Z,996.41
2022-11-24T00:47:26.001Z,996.41
2022-11-24T00:47:58.740Z,996.31
2022-11-24T00:48:29.813Z,996.31
2022-11-24T00:49:02.959Z,996.82
2022-11-24T00:49:34.587Z,996.82
2022-11-24T00:50:07.117Z,996.51
2022-11-24T00:50:35.024Z,996.51
2022-11-24T00:50:53.927Z,996.51
2022-11-24T00:51:25.973Z,996.51
2022-11-24T00:51:57.958Z,996.41
2022-11-24T00:52:29.810Z,996.41
2022-11-24T00:53:01.823Z,996.41
2022-11-24T00:53:34.312Z,996.41
2022-11-24T00:54:06.072Z,996.51
2022-11-24T00:54:35.457Z,996.61
2022-11-24T00:54:53.879Z,996.61
2022-11-24T00:55:26.961Z,996.61
2022-11-24T00:55:57.982Z,996.41
2022-11-24T00:56:30.650Z,996.41
2022-11-24T00:57:01.846Z,996.61
2022-11-24T00:57:35.092Z,996.61
2022-11-24T00:58:05.970Z,996.51
2022-11-24T00:58:36.047Z,996.61
2022-11-24T00:58:53.841Z,996.61
2022-11-24T00:59:26.318Z,996.61
2022-11-24T00:59:58.779Z,996.41
2022-11-24T01:00:30.168Z,996.41
2022-11-24T01:01:02.666Z,996.61
2022-11-24T01:01:34.005Z,996.61
2022-11-24T01:02:06.845Z,996.71
2022-11-24T01:02:35.197Z,996.51
2022-11-24T01:02:54.248Z,996.51
2022-11-24T01:03:25.832Z,996.51
2022-11-24T01:03:57.969Z,996.51
2022-11-24T01:04:30.039Z,996.51
2022-11-24T01:05:02.072Z,996.41
2022-11-24T01:05:33.971Z,996.41
2022-11-24T01:06:06.025Z,996.61
2022-11-24T01:06:35.533Z,996.51
2022-11-24T01:06:54.012Z,996.51
2022-11-24T01:07:26.812Z,996.51
2022-11-24T01:07:57.837Z,996.71
2022-11-24T01:08:30.768Z,996.71
2022-11-24T01:09:01.977Z,996.61
2022-11-24T01:09:34.786Z,996.61
2022-11-24T01:10:05.979Z,996.31
2022-11-24T01:10:34.929Z,996.31
2022-11-24T01:10:54.334Z,996.31
2022-11-24T01:11:25.979Z,996.31
2022-11-24T01:11:58.675Z,996.61
2022-11-24T01:12:29.963Z,996.61
2022-11-24T01:13:02.872Z,996.51
2022-11-24T01:13:34.494Z,996.51
2022-11-24T01:14:06.741Z,996.71
2022-11-24T01:14:36.256Z,996.61
2022-11-24T01:14:54.012Z,996.61
2022-11-24T01:15:26.121Z,996.61
2022-11-24T01:15:58.040Z,996.51
2022-11-24T01:16:29.817Z,996.51
2022-11-24T01:17:01.975Z,996.61
2022-11-24T01:17:34.036Z,996.61
2022-11-24T01:18:05.937Z,996.51
2022-11-24T01:18:35.759Z,996.51
2022-11-24T01:18:53.941Z,996.51
2022-11-24T01:19:26.861Z,996.51
2022-11-24T01:19:57.985Z,996.61
2022-11-24T01:20:30.961Z,996.61
2022-11-24T01:21:05.781Z,996.71
2022-11-24T01:21:34.847Z,996.71
2022-11-24T01:22:06.182Z,996.71
2022-11-24T01:22:35.095Z,996.41
2022-11-24T01:22:53.892Z,996.41
2022-11-24T01:23:25.980Z,996.41
2022-11-24T01:23:58.522Z,996.51
2022-11-24T01:24:29.938Z,996.51
2022-11-24T01:25:02.900Z,996.41
2022-11-24T01:25:33.968Z,996.41
2022-11-24T01:26:06.767Z,996.51
2022-11-24T01:26:35.057Z,996.61
2022-11-24T01:26:53.808Z,996.61
2022-11-24T01:27:26.135Z,996.61
2022-11-24T01:27:58.012Z,996.71
2022-11-24T01:28:30.082Z,996.71
2022-11-24T01:29:01.802Z,996.51
2022-11-24T01:29:33.975Z,996.51
2022-11-24T01:30:06.161Z,996.61
2022-11-24T01:30:35.156Z,996.61
2022-11-24T01:30:54.097Z,996.61
2022-11-24T01:31:26.891Z,996.61
2022-11-24T01:31:58.054Z,996.71
2022-11-24T01:32:30.487Z,996.71
2022-11-24T01:33:02.231Z,996.51
2022-11-24T01:33:34.965Z,996.51
2022-11-24T01:34:06.040Z,996.61
2022-11-24T01:34:35.442Z,996.71
2022-11-24T01:34:54.033Z,996.71
2022-11-24T01:35:25.910Z,996.71
2022-11-24T01:35:42.933Z,996.82
2022-11-24T01:36:13.993Z,996.82
2022-11-24T01:36:35.041Z,996.51
2022-11-24T01:37:03.100Z,996.51
2022-11-24T01:37:33.857Z,996.51
2022-11-24T01:38:06.832Z,996.92
2022-11-24T01:38:35.870Z,996.71
2022-11-24T01:38:54.028Z,996.71
2022-11-24T01:39:25.823Z,996.71
2022-11-24T01:39:42.907Z,996.71
2022-11-24T01:40:15.102Z,996.71
2022-11-24T01:40:35.366Z,996.82
2022-11-24T01:41:01.956Z,996.82
2022-11-24T01:41:33.840Z,996.82
2022-11-24T01:42:06.145Z,996.92
2022-11-24T01:42:34.950Z,996.71
2022-11-24T01:42:54.038Z,996.71
2022-11-24T01:43:26.671Z,996.71
2022-11-24T01:43:57.797Z,996.71
2022-11-24T01:44:30.739Z,996.71
2022-11-24T01:45:02.190Z,996.71
2022-11-24T01:45:37.741Z,996.71
2022-11-24T01:46:05.931Z,996.82
2022-11-24T01:46:35.667Z,996.92
2022-11-24T01:46:54.027Z,996.92
2022-11-24T01:47:25.919Z,996.92
2022-11-24T01:47:43.103Z,996.82
2022-11-24T01:48:14.044Z,996.82
2022-11-24T01:48:35.463Z,996.71
2022-11-24T01:49:02.757Z,996.71
2022-11-24T01:49:34.310Z,996.71
2022-11-24T01:50:07.277Z,996.82
2022-11-24T01:50:35.379Z,996.92
2022-11-24T01:50:53.973Z,996.92
2022-11-24T01:51:25.941Z,996.92
2022-11-24T01:51:43.386Z,996.92
2022-11-24T01:52:14.528Z,996.92
2022-11-24T01:52:34.924Z,996.71
2022-11-24T01:53:01.779Z,996.71
2022-11-24T01:53:33.959Z,996.71
2022-11-24T01:54:05.950Z,996.82
2022-11-24T01:54:35.385Z,996.92
2022-11-24T01:54:53.843Z,996.92
2022-11-24T01:55:26.877Z,996.92
2022-11-24T01:55:57.994Z,996.71
2022-11-24T01:56:30.553Z,996.71
2022-11-24T01:57:01.778Z,996.82
2022-11-24T01:57:36.040Z,996.82
2022-11-24T01:58:05.881Z,996.82
2022-11-24T01:58:34.996Z,996.71
2022-11-24T01:58:53.849Z,996.71
2022-11-24T01:59:25.802Z,996.71
2022-11-24T01:59:58.800Z,996.92
2022-11-24T02:00:35.416Z,996.71
2022-11-24T02:01:02.701Z,996.71
2022-11-24T02:01:34.468Z,996.71
2022-11-24T02:02:06.972Z,996.71
2022-11-24T02:02:35.084Z,996.71
2022-11-24T02:02:53.832Z,996.71
2022-11-24T02:03:25.819Z,996.71
2022-11-24T02:03:42.947Z,996.71
2022-11-24T02:04:14.642Z,996.71
2022-11-24T02:04:35.094Z,996.71
2022-11-24T02:05:01.960Z,996.71
2022-11-24T02:05:33.982Z,996.71
2022-11-24T02:06:05.930Z,996.82
2022-11-24T02:06:35.603Z,996.92
2022-11-24T02:06:54.442Z,996.92
2022-11-24T02:07:26.818Z,996.92
2022-11-24T02:07:57.983Z,996.82
2022-11-24T02:08:30.803Z,996.82
2022-11-24T02:09:04.017Z,996.82
2022-11-24T02:09:35.138Z,996.82
2022-11-24T02:10:06.112Z,996.82
2022-11-24T02:10:35.577Z,996.82
2022-11-24T02:10:53.950Z,996.82
2022-11-24T02:11:25.884Z,996.82
2022-11-24T02:11:43.115Z,996.71
2022-11-24T02:12:14.103Z,996.71
2022-11-24T02:12:34.955Z,996.71
2022-11-24T02:13:02.711Z,996.71
2022-11-24T02:13:33.902Z,996.71
2022-11-24T02:14:06.867Z,996.82
2022-11-24T02:14:35.292Z,996.92
2022-11-24T02:14:53.962Z,996.92
2022-11-24T02:15:26.047Z,996.92
2022-11-24T02:15:57.963Z,996.82
2022-11-24T02:16:30.079Z,996.82
2022-11-24T02:17:01.944Z,996.71
2022-11-24T02:17:33.871Z,996.71
2022-11-24T02:18:05.973Z,996.71
2022-11-24T02:18:35.133Z,996.71
2022-11-24T02:18:53.993Z,996.71
2022-11-24T02:19:26.855Z,996.71
2022-11-24T02:19:57.804Z,996.82
2022-11-24T02:20:30.853Z,996.82
2022-11-24T02:21:01.914Z,996.82
2022-11-24T02:21:35.013Z,996.82
2022-11-24T02:22:05.931Z,996.92
2022-11-24T02:22:37.103Z,996.92
2022-11-24T02:23:09.152Z,996.92
2022-11-24T02:23:26.036Z,996.92
2022-11-24T02:23:58.721Z,996.71
2022-11-24T02:24:29.883Z,996.71
2022-11-24T02:25:02.779Z,997.02
2022-11-24T02:25:34.022Z,997.02
2022-11-24T02:26:06.758Z,996.71
2022-11-24T02:26:34.912Z,997.02
2022-11-24T02:26:54.047Z,997.02
2022-11-24T02:27:26.005Z,997.02
2022-11-24T02:27:43.067Z,996.82
2022-11-24T02:28:14.736Z,996.82
2022-11-24T02:28:35.058Z,996.71
2022-11-24T02:29:01.940Z,996.71
2022-11-24T02:29:34.379Z,996.71
2022-11-24T02:30:06.057Z,997.02
2022-11-24T02:30:35.051Z,997.12
2022-11-24T02:30:54.153Z,997.12
2022-11-24T02:31:26.956Z,997.12
2022-11-24T02:31:57.969Z,996.71
2022-11-24T02:32:30.661Z,996.71
2022-11-24T02:33:02.049Z,996.92
2022-11-24T02:33:34.866Z,996.92
2022-11-24T02:34:06.065Z,996.92
2022-11-24T02:34:35.861Z,997.12
2022-11-24T02:34:53.840Z,997.12
2022-11-24T02:35:26.115Z,997.12
2022-11-24T02:35:43.093Z,997.02
2022-11-24T02:36:14.049Z,997.02
2022-11-24T02:36:35.038Z,996.92
2022-11-24T02:37:02.921Z,996.92
2022-11-24T02:37:33.972Z,996.92
2022-11-24T02:38:07.035Z,996.92
2022-11-24T02:38:35.468Z,996.92
2022-11-24T02:39:10.923Z,996.92
2022-11-24T02:39:34.898Z,996.92
2022-11-24T02:39:57.949Z,996.92
2022-11-24T02:40:29.979Z,996.92
2022-11-24T02:41:01.850Z,996.92
2022-11-24T02:41:34.016Z,996.92
2022-11-24T02:42:05.988Z,997.12
2022-11-24T02:42:35.035Z,997.02
2022-11-24T02:42:53.852Z,997.02
2022-11-24T02:43:26.932Z,997.02
2022-11-24T02:43:57.979Z,997.12
2022-11-24T02:44:30.673Z,997.12
2022-11-24T02:45:02.049Z,997.12
2022-11-24T02:45:36.016Z,997.12
2022-11-24T02:46:05.953Z,997.02
2022-11-24T02:46:35.049Z,996.92
2022-11-24T02:46:53.807Z,996.92
2022-11-24T02:47:25.945Z,996.92
2022-11-24T02:47:58.956Z,997.02
2022-11-24T02:48:29.993Z,997.02
2022-11-24T02:49:02.762Z,997.12
2022-11-24T02:49:34.026Z,997.12
2022-11-24T02:50:07.004Z,996.92
2022-11-24T02:50:35.505Z,996.92
2022-11-24T02:50:53.955Z,996.92
2022-11-24T02:51:26.232Z,996.92
2022-11-24T02:51:43.067Z,997.02
2022-11-24T02:52:14.810Z,997.02
2022-11-24T02:52:34.939Z,997.02
2022-11-24T02:53:01.771Z,997.02
2022-11-24T02:53:33.907Z,997.02
2022-11-24T02:54:06.059Z,996.82
2022-11-24T02:54:35.326Z,996.92
2022-11-24T02:54:54.001Z,996.92
2022-11-24T02:55:27.074Z,996.92
2022-11-24T02:55:57.986Z,997.02
2022-11-24T02:56:30.815Z,997.02
2022-11-24T02:57:02.040Z,997.12
2022-11-24T02:57:34.708Z,997.12
2022-11-24T02:58:05.901Z,997.02
2022-11-24T02:58:36.017Z,997.02
2022-11-24T02:58:53.959Z,997.02
2022-11-24T02:59:25.792Z,997.02
2022-11-24T02:59:43.877Z,997.22
2022-11-24T03:00:14.378Z,997.22
2022-11-24T03:00:35.178Z,997.12
2022-11-24T03:01:01.976Z,997.12
2022-11-24T03:01:34.371Z,997.12
2022-11-24T03:02:06.822Z,997.02
2022-11-24T03:02:34.975Z,997.02
2022-11-24T03:02:54.154Z,997.02
2022-11-24T03:03:25.951Z,997.02
2022-11-24T03:03:57.966Z,997.22
2022-11-24T03:04:30.007Z,997.22
2022-11-24T03:05:02.148Z,996.92
2022-11-24T03:05:34.530Z,996.92
2022-11-24T03:06:06.318Z,997.22
2022-11-24T03:06:34.945Z,996.92
2022-11-24T03:06:54.026Z,996.92
2022-11-24T03:07:27.027Z,996.92
2022-11-24T03:07:57.834Z,997.22
2022-11-24T03:08:30.873Z,997.22
2022-11-24T03:09:01.878Z,997.32
2022-11-24T03:09:34.557Z,997.32
2022-11-24T03:10:05.924Z,997.22
2022-11-24T03:10:36.530Z,997.43
2022-11-24T03:10:54.117Z,997.43
2022-11-24T03:11:25.884Z,997.43
2022-11-24T03:11:43.758Z,997.22
2022-11-24T03:12:13.814Z,997.22
2022-11-24T03:12:35.033Z,997.32
2022-11-24T03:13:02.010Z,997.32
2022-11-24T03:13:34.041Z,997.32
2022-11-24T03:14:07.050Z,997.22
2022-11-24T03:14:35.659Z,997.32
2022-11-24T03:14:53.985Z,997.32
2022-11-24T03:15:26.189Z,997.32
2022-11-24T03:15:43.512Z,997.22
2022-11-24T03:16:14.775Z,997.22
2022-11-24T03:16:35.048Z,997.32
2022-11-24T03:17:01.923Z,997.32
2022-11-24T03:17:33.989Z,997.32
2022-11-24T03:18:05.799Z,997.43
2022-11-24T03:18:35.505Z,997.22
2022-11-24T03:18:53.976Z,997.22
2022-11-24T03:19:26.785Z,997.22
2022-11-24T03:20:03.001Z,997.43
2022-11-24T03:20:31.003Z,997.43
2022-11-24T03:21:01.937Z,997.43
2022-11-24T03:21:34.849Z,997.43
2022-11-24T03:22:06.190Z,997.43
2022-11-24T03:22:35.703Z,997.22
2022-11-24T03:22:53.905Z,997.22
2022-11-24T03:23:25.926Z,997.22
2022-11-24T03:23:44.014Z,997.53
2022-11-24T03:24:13.968Z,997.53
2022-11-24T03:24:35.116Z,997.43
2022-11-24T03:25:01.975Z,997.43
2022-11-24T03:25:34.030Z,997.43
2022-11-24T03:26:06.945Z,997.32
2022-11-24T03:26:35.105Z,997.43
2022-11-24T03:26:53.866Z,997.43
2022-11-24T03:27:25.979Z,997.43
2022-11-24T03:27:43.050Z,997.43
2022-11-24T03:28:15.001Z,997.43
2022-11-24T03:28:35.439Z,997.32
2022-11-24T03:29:01.800Z,997.32
2022-11-24T03:29:34.097Z,997.32
2022-11-24T03:30:06.148Z,997.93
2022-11-24T03:30:35.348Z,997.53
2022-11-24T03:30:54.371Z,997.53
2022-11-24T03:31:26.781Z,997.53
2022-11-24T03:31:58.018Z,997.73
2022-11-24T03:32:30.976Z,997.73
2022-11-24T03:33:02.170Z,997.63
2022-11-24T03:33:34.923Z,997.63
2022-11-24T03:34:06.100Z,997.83
2022-11-24T03:34:35.462Z,997.43
2022-11-24T03:34:53.992Z,997.43
2022-11-24T03:35:25.990Z,997.43
2022-11-24T03:35:58.962Z,997.63
2022-11-24T03:36:30.033Z,997.63
2022-11-24T03:37:02.690Z,997.53
2022-11-24T03:37:33.986Z,997.53
2022-11-24T03:38:06.764Z,997.53
2022-11-24T03:38:35.355Z,997.53
2022-11-24T03:38:53.942Z,997.53
2022-11-24T03:39:25.879Z,997.53
2022-11-24T03:39:43.571Z,997.63
2022-11-24T03:40:14.870Z,997.63
2022-11-24T03:40:34.866Z,997.73
2022-11-24T03:41:02.049Z,997.73
2022-11-24T03:41:33.826Z,997.73
2022-11-24T03:42:05.809Z,997.73
2022-11-24T03:42:34.895Z,997.53
2022-11-24T03:42:53.827Z,997.53
2022-11-24T03:43:40.458Z,997.73
2022-11-24T03:43:57.999Z,997.73
2022-11-24T03:44:29.817Z,997.73
2022-11-24T03:45:29.914Z,997.53
2022-11-24T03:45:50.776Z,997.63
2022-11-24T03:46:21.980Z,997.63
2022-11-24T03:46:39.140Z,997.43
2022-11-24T03:47:09.728Z,997.43
2022-11-24T03:47:35.152Z,997.93
2022-11-24T03:47:58.485Z,997.93
2022-11-24T03:48:29.995Z,997.93
2022-11-24T03:49:02.650Z,997.73
2022-11-24T03:49:34.861Z,997.73
2022-11-24T03:50:06.941Z,997.83
2022-11-24T03:50:35.083Z,997.73
2022-11-24T03:50:53.916Z,997.73
2022-11-24T03:51:25.896Z,997.73
2022-11-24T03:51:57.973Z,997.83
2022-11-24T03:52:29.993Z,997.83
2022-11-24T03:53:01.829Z,997.93
2022-11-24T03:53:33.948Z,997.93
2022-11-24T03:54:05.970Z,997.73
2022-11-24T03:54:35.267Z,997.73
2022-11-24T03:54:53.972Z,997.73
2022-11-24T03:55:26.853Z,997.73
2022-11-24T03:55:57.961Z,997.83
2022-11-24T03:56:30.780Z,997.83
2022-11-24T03:57:01.955Z,998.14
2022-11-24T03:57:35.440Z,998.14
2022-11-24T03:58:05.931Z,997.73
2022-11-24T03:58:35.284Z,997.73
2022-11-24T03:58:54.004Z,997.73
2022-11-24T03:59:25.837Z,997.73
2022-11-24T03:59:42.929Z,997.73
2022-11-24T04:00:14.351Z,997.73
2022-11-24T04:00:35.124Z,997.83
2022-11-24T04:01:02.726Z,997.83
2022-11-24T04:01:34.367Z,997.83
2022-11-24T04:02:06.992Z,997.93
2022-11-24T04:02:35.122Z,997.93
2022-11-24T04:02:53.996Z,997.93
2022-11-24T04:03:25.890Z,997.93
2022-11-24T04:03:42.922Z,998.14
2022-11-24T04:04:15.063Z,998.14
2022-11-24T04:04:35.455Z,997.83
2022-11-24T04:05:02.139Z,997.83
2022-11-24T04:05:34.504Z,997.83
2022-11-24T04:06:05.877Z,997.93
2022-11-24T04:06:35.233Z,997.83
2022-11-24T04:06:53.960Z,997.83
2022-11-24T04:07:26.909Z,997.83
2022-11-24T04:07:58.247Z,997.83
2022-11-24T04:08:30.853Z,997.83
2022-11-24T04:09:02.040Z,997.93
2022-11-24T04:09:34.705Z,997.93
2022-11-24T04:10:05.965Z,997.93
2022-11-24T04:10:36.935Z,997.83
2022-11-24T04:10:54.102Z,997.83
2022-11-24T04:11:25.977Z,997.83
2022-11-24T04:11:43.659Z,997.83
2022-11-24T04:12:13.855Z,997.83
2022-11-24T04:12:35.054Z,998.03
2022-11-24T04:13:01.939Z,998.03
2022-11-24T04:13:33.952Z,998.03
2022-11-24T04:14:11.959Z,997.73
2022-11-24T04:14:35.477Z,997.93
2022-11-24T04:14:53.946Z,997.93
2022-11-24T04:15:26.780Z,997.93
2022-11-24T04:15:58.133Z,998.03
2022-11-24T04:16:29.931Z,998.03
2022-11-24T04:17:01.953Z,997.93
2022-11-24T04:17:34.119Z,997.93
2022-11-24T04:18:06.026Z,998.03
2022-11-24T04:18:35.436Z,997.93
2022-11-24T04:18:53.808Z,997.93
2022-11-24T04:19:26.834Z,997.93
2022-11-24T04:19:57.943Z,997.83
2022-11-24T04:20:30.927Z,997.83
2022-11-24T04:21:01.851Z,997.93
2022-11-24T04:21:35.135Z,997.93
2022-11-24T04:22:21.946Z,998.03
2022-11-24T04:22:39.855Z,998.03
2022-11-24T04:23:09.836Z,998.03
2022-11-24T04:23:34.961Z,997.83
2022-11-24T04:23:57.978Z,997.83
2022-11-24T04:24:30.105Z,997.83
2022-11-24T04:25:03.484Z,997.83
2022-11-24T04:25:34.018Z,997.83
2022-11-24T04:26:06.513Z,998.03
2022-11-24T04:26:35.021Z,998.14
2022-11-24T04:26:53.814Z,998.14
2022-11-24T04:27:25.885Z,998.14
2022-11-24T04:27:42.844Z,998.03
2022-11-24T04:28:14.903Z,998.03
2022-11-24T04:28:35.338Z,997.93
2022-11-24T04:29:01.767Z,997.93
2022-11-24T04:29:33.759Z,997.93
2022-11-24T04:30:06.714Z,997.93
2022-11-24T04:30:35.106Z,998.14
2022-11-24T04:30:54.156Z,998.14
2022-11-24T04:31:26.822Z,998.14
2022-11-24T04:31:57.843Z,998.03
2022-11-24T04:32:30.700Z,998.03
2022-11-24T04:33:02.016Z,997.93
2022-11-24T04:33:35.413Z,997.93
2022-11-24T04:34:05.892Z,998.14
2022-11-24T04:34:35.218Z,998.03
2022-11-24T04:34:54.026Z,998.03
2022-11-24T04:35:26.106Z,998.03
2022-11-24T04:35:42.894Z,997.93
2022-11-24T04:36:13.836Z,997.93
2022-11-24T04:36:35.330Z,997.93
2022-11-24T04:37:02.968Z,997.93
2022-11-24T04:37:34.012Z,997.93
2022-11-24T04:38:06.756Z,998.03
2022-11-24T04:39:25.368Z,998.14
2022-11-24T04:39:34.971Z,998.03
2022-11-24T04:39:58.293Z,998.03
2022-11-24T04:40:30.048Z,998.03
2022-11-24T04:41:01.974Z,998.03
2022-11-24T04:41:34.019Z,998.03
2022-11-24T04:42:05.820Z,998.03
2022-11-24T04:42:35.083Z,998.03
2022-11-24T04:42:53.885Z,998.03
2022-11-24T04:43:26.627Z,998.03
2022-11-24T04:43:57.949Z,998.14
2022-11-24T04:44:30.741Z,998.14
2022-11-24T04:45:02.124Z,998.14
2022-11-24T04:45:35.405Z,998.14
2022-11-24T04:46:05.988Z,998.24
2022-11-24T04:46:35.159Z,998.24
2022-11-24T04:46:53.902Z,998.24
2022-11-24T04:47:25.967Z,998.24
2022-11-24T04:47:43.062Z,998.24
2022-11-24T04:48:14.091Z,998.24
2022-11-24T04:48:34.987Z,998.03
2022-11-24T04:49:02.833Z,998.03
2022-11-24T04:49:33.982Z,998.03
2022-11-24T04:50:07.228Z,998.03
2022-11-24T04:50:35.119Z,998.14
2022-11-24T04:50:53.988Z,998.14
2022-11-24T04:51:25.920Z,998.14
2022-11-24T04:51:43.063Z,998.24
2022-11-24T04:52:14.649Z,998.24
2022-11-24T04:52:34.907Z,998.24
2022-11-24T04:53:01.796Z,998.24
2022-11-24T04:53:34.204Z,998.24
2022-11-24T04:54:06.072Z,998.14
2022-11-24T04:54:35.367Z,998.24
2022-11-24T04:54:54.173Z,998.24
2022-11-24T04:55:26.922Z,998.24
2022-11-24T04:55:57.935Z,998.24
2022-11-24T04:56:30.548Z,998.24
2022-11-24T04:57:01.783Z,998.24
2022-11-24T04:57:34.966Z,998.24
2022-11-24T04:58:05.935Z,998.24
2022-11-24T04:58:35.278Z,998.34
2022-11-24T04:58:54.002Z,998.34
2022-11-24T04:59:25.832Z,998.34
2022-11-24T04:59:43.005Z,998.34
2022-11-24T05:00:14.354Z,998.34
2022-11-24T05:00:35.094Z,998.24
2022-11-24T05:01:02.745Z,998.24
2022-11-24T05:01:33.863Z,998.24
2022-11-24T05:02:06.885Z,998.24
2022-11-24T05:02:34.962Z,998.03
2022-11-24T05:02:53.983Z,998.03
2022-11-24T05:03:25.794Z,998.03
2022-11-24T05:03:42.936Z,998.24
2022-11-24T05:04:15.044Z,998.24
2022-11-24T05:04:35.510Z,998.44
2022-11-24T05:05:02.185Z,998.44
2022-11-24T05:05:33.940Z,998.44
2022-11-24T05:06:05.827Z,998.03
2022-11-24T05:06:34.874Z,998.14
2022-11-24T05:06:53.971Z,998.14
2022-11-24T05:07:26.963Z,998.14
2022-11-24T05:07:57.830Z,998.44
2022-11-24T05:08:30.791Z,998.44
2022-11-24T05:09:01.934Z,998.34
2022-11-24T05:09:55.275Z,998.34
2022-11-24T05:10:05.987Z,998.34
2022-11-24T05:10:35.394Z,998.14
2022-11-24T05:10:54.038Z,998.14
2022-11-24T05:11:25.957Z,998.14
2022-11-24T05:11:43.097Z,998.34
2022-11-24T05:12:13.848Z,998.34
2022-11-24T05:12:35.054Z,998.44
2022-11-24T05:13:02.847Z,998.44
2022-11-24T05:13:34.040Z,998.44
2022-11-24T05:14:06.930Z,998.44
2022-11-24T05:14:35.295Z,998.61
2022-11-24T05:14:53.998Z,998.61
2022-11-24T05:15:26.165Z,998.61
2022-11-24T05:15:43.128Z,998.51
2022-11-24T05:16:14.956Z,998.51
2022-11-24T05:16:35.178Z,998.44
2022-11-24T05:17:01.967Z,998.44
2022-11-24T05:17:33.983Z,998.44
2022-11-24T05:18:06.024Z,998.44
2022-11-24T05:18:35.457Z,998.51
2022-11-24T05:18:54.001Z,998.51
2022-11-24T05:19:31.226Z,998.51
2022-11-24T05:19:57.956Z,998.51
2022-11-24T05:20:31.090Z,998.51
2022-11-24T05:21:01.842Z,998.61
2022-11-24T05:21:34.814Z,998.61
2022-11-24T05:22:06.190Z,998.61
2022-11-24T05:22:35.164Z,998.34
2022-11-24T05:22:53.929Z,998.34
2022-11-24T05:23:25.933Z,998.34
2022-11-24T05:23:42.973Z,998.44
2022-11-24T05:24:14.007Z,998.44
2022-11-24T05:24:35.611Z,998.51
2022-11-24T05:25:03.382Z,998.51
2022-11-24T05:25:33.812Z,998.51
2022-11-24T05:26:06.999Z,998.51
2022-11-24T05:26:35.093Z,998.34
2022-11-24T05:26:53.994Z,998.34
2022-11-24T05:27:26.484Z,998.34
2022-11-24T05:27:42.904Z,998.51
2022-11-24T05:28:14.742Z,998.51
2022-11-24T05:28:35.142Z,998.44
2022-11-24T05:29:02.036Z,998.44
2022-11-24T05:29:34.075Z,998.44
2022-11-24T05:30:06.178Z,998.34
2022-11-24T05:30:34.923Z,998.44
2022-11-24T05:30:54.272Z,998.44
2022-11-24T05:31:27.021Z,998.44
2022-11-24T05:31:58.096Z,998.61
2022-11-24T05:32:30.937Z,998.61
2022-11-24T05:33:02.049Z,998.51
2022-11-24T05:33:36.603Z,998.51
2022-11-24T05:34:06.171Z,998.71
2022-11-24T05:34:35.988Z,998.61
2022-11-24T05:34:54.007Z,998.61
2022-11-24T05:35:26.180Z,998.61
2022-11-24T05:35:43.151Z,998.61
2022-11-24T05:36:13.815Z,998.61
2022-11-24T05:36:35.173Z,998.81
2022-11-24T05:37:02.701Z,998.81
2022-11-24T05:37:34.038Z,998.81
2022-11-24T05:38:06.815Z,998.71
2022-11-24T05:38:35.115Z,998.71
2022-11-24T05:38:53.876Z,998.71
2022-11-24T05:39:26.239Z,998.71
2022-11-24T05:39:43.070Z,998.81
2022-11-24T05:40:14.810Z,998.81
2022-11-24T05:40:35.036Z,998.81
2022-11-24T05:41:01.991Z,998.81
2022-11-24T05:41:34.386Z,998.81
2022-11-24T05:42:06.041Z,998.81
2022-11-24T05:42:35.104Z,998.92
2022-11-24T05:42:53.885Z,998.92
2022-11-24T05:43:27.271Z,998.92
2022-11-24T05:43:57.952Z,998.71
2022-11-24T05:44:30.744Z,998.71
2022-11-24T05:45:02.189Z,998.92
2022-11-24T05:45:35.219Z,998.92
2022-11-24T05:46:05.925Z,998.81
2022-11-24T05:46:35.148Z,998.81
2022-11-24T05:46:53.979Z,998.81
2022-11-24T05:47:26.080Z,998.81
2022-11-24T05:47:43.098Z,999.02
2022-11-24T05:48:14.061Z,999.02
2022-11-24T05:48:35.781Z,998.92
2022-11-24T05:49:03.157Z,998.92
2022-11-24T05:49:34.129Z,998.92
2022-11-24T05:50:06.862Z,998.71
2022-11-24T05:50:35.762Z,998.81
2022-11-24T05:50:53.985Z,998.81
2022-11-24T05:51:26.076Z,998.81
2022-11-24T05:51:43.061Z,998.81
2022-11-24T05:52:14.834Z,998.81
2022-11-24T05:52:35.009Z,998.92
2022-11-24T05:53:01.841Z,998.92
2022-11-24T05:53:33.920Z,998.92
2022-11-24T05:54:05.979Z,998.81
2022-11-24T05:54:35.708Z,999.02
2022-11-24T05:54:53.780Z,999.02
2022-11-24T05:55:26.884Z,999.02
2022-11-24T05:55:57.924Z,999.02
2022-11-24T05:56:30.548Z,999.02
2022-11-24T05:57:01.845Z,998.92
2022-11-24T05:57:34.817Z,998.92
2022-11-24T05:58:06.012Z,998.92
2022-11-24T05:58:36.286Z,998.92
2022-11-24T05:58:53.930Z,998.92